createdAt,value
2018-03-24T00:00:42.988Z,20.73
2018-03-24T00:03:11.005Z,23.07
2018-03-24T00:05:39.126Z,21.80
2018-03-24T00:08:07.226Z,20.57
2018-03-24T00:10:35.227Z,21.33
2018-03-24T00:13:03.366Z,21.70
2018-03-24T00:15:31.433Z,20.67
2018-03-24T00:17:59.474Z,20.17
2018-03-24T00:20:27.483Z,21.63
2018-03-24T00:22:55.646Z,20.30
2018-03-24T00:25:24.365Z,20.57
2018-03-24T00:27:52.376Z,21.30
2018-03-24T00:30:20.392Z,20.30
2018-03-24T00:32:48.863Z,21.80
2018-03-24T00:35:16.937Z,19.40
2018-03-24T00:37:45.098Z,22.17
2018-03-24T00:40:13.165Z,19.47
2018-03-24T00:42:41.153Z,22.73
2018-03-24T00:45:09.150Z,22.27
2018-03-24T00:47:37.141Z,20.30
2018-03-24T00:50:05.152Z,20.57
2018-03-24T00:52:33.170Z,20.53
2018-03-24T00:55:01.186Z,21.40
2018-03-24T00:57:29.172Z,21.30
2018-03-24T00:59:57.209Z,20.70
2018-03-24T01:02:25.248Z,23.07
2018-03-24T01:04:53.280Z,20.30
2018-03-24T01:07:21.287Z,20.70
2018-03-24T01:09:49.322Z,22.37
2018-03-24T01:12:17.794Z,20.43
2018-03-24T01:14:45.898Z,21.17
2018-03-24T01:17:13.899Z,21.30
2018-03-24T01:19:41.925Z,21.45
2018-03-24T01:22:09.927Z,21.90
2018-03-24T01:24:37.944Z,21.77
2018-03-24T01:27:06.046Z,20.60
2018-03-24T01:29:34.089Z,21.10
2018-03-24T01:32:02.185Z,21.23
2018-03-24T01:34:30.930Z,22.23
2018-03-24T01:36:58.917Z,24.70
2018-03-24T01:39:27.079Z,24.53
2018-03-24T01:41:55.070Z,23.33
2018-03-24T01:44:23.849Z,25.33
2018-03-24T01:46:51.963Z,23.30
2018-03-24T01:49:20.052Z,21.33
2018-03-24T01:51:48.198Z,22.47
2018-03-24T01:54:16.195Z,23.53
2018-03-24T01:56:44.308Z,22.70
2018-03-24T01:59:12.370Z,24.67
2018-03-24T02:01:40.473Z,26.33
2018-03-24T02:04:08.534Z,25.03
2018-03-24T02:06:36.678Z,27.17
2018-03-24T02:09:04.713Z,23.70
2018-03-24T02:11:32.774Z,26.37
2018-03-24T02:14:01.485Z,24.13
2018-03-24T02:16:29.535Z,25.37
2018-03-24T02:18:57.965Z,27.80
2018-03-24T02:21:26.030Z,27.13
2018-03-24T02:23:54.105Z,27.47
2018-03-24T02:26:22.132Z,26.33
2018-03-24T02:28:50.160Z,25.83
2018-03-24T02:31:18.193Z,29.55
2018-03-24T02:33:46.201Z,28.20
2018-03-24T02:36:14.231Z,29.00
2018-03-24T02:38:42.257Z,29.73
2018-03-24T02:41:10.316Z,29.13
2018-03-24T02:43:38.669Z,27.70
2018-03-24T02:46:07.341Z,25.17
2018-03-24T02:48:35.500Z,25.43
2018-03-24T02:51:03.589Z,24.30
2018-03-24T02:53:31.640Z,26.13
2018-03-24T02:56:00.226Z,28.40
2018-03-24T02:58:28.672Z,30.23
2018-03-24T03:00:56.711Z,30.10
2018-03-24T03:03:24.838Z,26.53
2018-03-24T03:05:52.853Z,26.43
2018-03-24T03:08:21.466Z,26.50
2018-03-24T03:10:49.469Z,26.10
2018-03-24T03:13:17.528Z,26.47
2018-03-24T03:15:45.573Z,28.40
2018-03-24T03:18:13.589Z,24.67
2018-03-24T03:20:41.593Z,25.50
2018-03-24T03:23:09.593Z,26.80
2018-03-24T03:25:38.021Z,27.83
2018-03-24T03:28:06.070Z,26.90
2018-03-24T03:30:35.887Z,25.63
2018-03-24T03:33:03.947Z,27.30
2018-03-24T03:35:31.957Z,28.77
2018-03-24T03:37:59.969Z,28.57
2018-03-24T03:40:27.988Z,27.50
2018-03-24T03:42:56.007Z,26.17
2018-03-24T03:45:24.050Z,29.03
2018-03-24T03:47:52.063Z,25.27
2018-03-24T03:50:20.112Z,26.87
2018-03-24T03:52:48.111Z,30.53
2018-03-24T03:55:16.175Z,27.50
2018-03-24T03:57:44.184Z,29.30
2018-03-24T04:00:12.195Z,29.87
2018-03-24T04:02:40.245Z,28.75
2018-03-24T04:05:08.200Z,30.17
2018-03-24T04:07:36.155Z,30.40
2018-03-24T04:10:04.175Z,29.27
2018-03-24T04:12:32.325Z,28.37
2018-03-24T04:15:00.296Z,29.40
2018-03-24T04:17:28.744Z,27.60
2018-03-24T04:19:56.672Z,27.35
2018-03-24T04:22:24.749Z,29.70
2018-03-24T04:24:52.713Z,30.53
2018-03-24T04:27:20.644Z,28.57
2018-03-24T04:29:49.470Z,30.97
2018-03-24T04:32:17.386Z,29.40
2018-03-24T04:34:49.081Z,24.97
2018-03-24T04:37:17.001Z,28.30
2018-03-24T04:39:45.102Z,30.10
2018-03-24T04:42:13.021Z,27.67
2018-03-24T04:44:41.031Z,28.30
2018-03-24T04:47:08.952Z,28.55
2018-03-24T04:49:36.977Z,28.62
2018-03-24T04:52:04.941Z,30.10
2018-03-24T04:54:32.858Z,29.90
2018-03-24T04:57:00.823Z,29.05
2018-03-24T04:59:28.754Z,28.70
2018-03-24T05:01:56.690Z,29.20
2018-03-24T05:04:24.631Z,30.80
2018-03-24T05:06:52.552Z,27.10
2018-03-24T05:09:20.601Z,29.00
2018-03-24T05:11:48.545Z,28.93
2018-03-24T05:14:16.639Z,30.10
2018-03-24T05:16:44.576Z,27.53
2018-03-24T05:19:12.531Z,28.53
2018-03-24T05:21:40.474Z,29.20
2018-03-24T05:24:08.465Z,29.48
2018-03-24T05:26:36.416Z,29.60
2018-03-24T05:29:04.341Z,30.40
2018-03-24T05:31:32.303Z,31.17
2018-03-24T05:34:00.223Z,29.75
2018-03-24T05:36:28.160Z,28.87
2018-03-24T05:38:56.097Z,30.05
2018-03-24T05:41:24.147Z,34.13
2018-03-24T05:43:52.755Z,30.67
2018-03-24T05:46:20.731Z,30.12
2018-03-24T05:48:48.667Z,31.42
2018-03-24T05:51:16.636Z,30.13
2018-03-24T05:53:44.574Z,30.57
2018-03-24T05:56:12.567Z,30.77
2018-03-24T05:58:40.574Z,29.58
2018-03-24T06:01:08.510Z,32.83
2018-03-24T06:03:36.466Z,30.60
2018-03-24T06:06:04.409Z,31.60
2018-03-24T06:08:33.233Z,30.73
2018-03-24T06:11:01.152Z,29.97
2018-03-24T06:13:29.106Z,31.27
2018-03-24T06:15:57.036Z,31.27
2018-03-24T06:18:25.154Z,31.53
2018-03-24T06:20:53.110Z,32.60
2018-03-24T06:23:21.029Z,31.10
2018-03-24T06:25:48.956Z,31.87
2018-03-24T06:28:16.921Z,31.87
2018-03-24T06:30:44.821Z,31.37
2018-03-24T06:33:12.780Z,31.37
2018-03-24T06:35:40.720Z,31.27
2018-03-24T06:38:08.682Z,31.30
2018-03-24T06:40:36.569Z,28.08
2018-03-24T06:43:04.508Z,31.80
2018-03-24T06:45:33.280Z,31.30
2018-03-24T06:48:01.299Z,29.37
2018-03-24T06:50:29.263Z,30.30
2018-03-24T06:52:57.222Z,29.10
2018-03-24T06:55:25.230Z,29.40
2018-03-24T06:57:53.159Z,28.33
2018-03-24T07:00:21.289Z,28.93
2018-03-24T07:02:49.282Z,29.03
2018-03-24T07:05:17.202Z,31.57
2018-03-24T07:07:45.222Z,32.10
2018-03-24T07:10:13.107Z,32.73
2018-03-24T07:12:41.037Z,27.77
2018-03-24T07:15:09.096Z,25.13
2018-03-24T07:17:37.580Z,26.37
2018-03-24T07:20:05.508Z,26.80
2018-03-24T07:22:33.432Z,25.87
2018-03-24T07:25:01.427Z,26.10
2018-03-24T07:27:29.376Z,27.87
2018-03-24T07:29:57.328Z,29.60
2018-03-24T07:32:25.257Z,29.83
2018-03-24T07:34:53.202Z,29.40
2018-03-24T07:37:21.125Z,29.77
2018-03-24T07:39:49.188Z,27.00
2018-03-24T07:42:17.103Z,27.80
2018-03-24T07:44:45.035Z,28.83
2018-03-24T07:47:12.972Z,28.50
2018-03-24T07:49:42.286Z,28.83
2018-03-24T07:52:10.309Z,27.90
2018-03-24T07:54:38.253Z,26.33
2018-03-24T07:57:06.586Z,26.17
2018-03-24T07:59:34.549Z,28.50
2018-03-24T08:02:02.514Z,28.70
2018-03-24T08:04:30.463Z,27.93
2018-03-24T08:06:58.378Z,26.03
2018-03-24T08:09:27.297Z,27.87
2018-03-24T08:11:55.241Z,29.90
2018-03-24T08:14:23.203Z,25.77
2018-03-24T08:16:51.334Z,25.67
2018-03-24T08:19:19.226Z,25.70
2018-03-24T08:21:47.228Z,26.87
2018-03-24T08:24:15.196Z,25.40
2018-03-24T08:26:43.232Z,24.10
2018-03-24T08:29:11.163Z,27.13
2018-03-24T08:31:39.277Z,24.87
2018-03-24T08:34:07.262Z,24.10
2018-03-24T08:36:35.246Z,25.73
2018-03-24T08:39:03.213Z,25.30
2018-03-24T08:41:31.155Z,24.80
2018-03-24T08:43:59.099Z,25.03
2018-03-24T08:46:27.094Z,24.53
2018-03-24T08:48:55.068Z,25.87
2018-03-24T08:51:23.162Z,24.80
2018-03-24T08:56:17.319Z,24.10
2018-03-24T08:58:46.721Z,23.60
2018-03-24T09:01:14.771Z,21.33
2018-03-24T09:03:42.741Z,23.03
2018-03-24T09:06:10.707Z,23.10
2018-03-24T09:08:38.765Z,23.53
2018-03-24T09:11:07.640Z,24.60
2018-03-24T09:13:35.601Z,22.67
2018-03-24T09:16:03.730Z,24.40
2018-03-24T09:18:33.072Z,25.00
2018-03-24T09:21:01.220Z,25.07
2018-03-24T09:23:29.519Z,24.37
2018-03-24T09:26:01.909Z,22.63
2018-03-24T09:28:31.332Z,25.37
2018-03-24T09:31:02.249Z,24.43
2018-03-24T09:33:30.269Z,24.27
2018-03-24T09:35:58.316Z,25.27
2018-03-24T09:38:26.368Z,22.10
2018-03-24T09:40:54.637Z,20.30
2018-03-24T09:43:22.650Z,23.63
2018-03-24T09:45:51.510Z,23.00
2018-03-24T09:48:19.775Z,22.47
2018-03-24T09:50:47.820Z,23.00
2018-03-24T09:53:16.962Z,22.70
2018-03-24T09:55:45.194Z,21.70
2018-03-24T09:58:14.156Z,21.80
2018-03-24T10:00:42.156Z,22.27
2018-03-24T10:03:10.767Z,19.60
2018-03-24T10:05:39.625Z,22.57
2018-03-24T10:08:07.571Z,18.67
2018-03-24T10:10:36.012Z,20.27
2018-03-24T10:13:04.131Z,18.70
2018-03-24T10:15:32.791Z,21.00
2018-03-24T10:18:01.947Z,21.20
2018-03-24T10:23:50.206Z,18.80
2018-03-24T10:26:20.268Z,18.40
2018-03-24T10:28:49.449Z,19.50
2018-03-24T10:31:17.339Z,19.03
2018-03-24T10:33:50.797Z,18.60
2018-03-24T10:36:18.741Z,15.60
2018-03-24T10:38:48.028Z,15.90
2018-03-24T10:41:15.940Z,14.90
2018-03-24T10:43:43.851Z,18.03
2018-03-24T10:46:11.794Z,16.27
2018-03-24T10:48:39.728Z,13.87
2018-03-24T10:51:08.259Z,14.23
2018-03-24T10:53:36.156Z,14.67
2018-03-24T10:56:04.149Z,13.90
2018-03-24T10:58:32.044Z,13.67
2018-03-24T11:04:03.156Z,15.13
2018-03-24T11:06:31.093Z,13.97
2018-03-24T11:08:59.038Z,12.80
2018-03-24T11:11:26.963Z,15.17
2018-03-24T11:13:54.898Z,14.40
2018-03-24T11:16:22.839Z,16.10
2018-03-24T11:18:50.776Z,19.13
2018-03-24T11:21:18.753Z,17.00
2018-03-24T11:23:46.670Z,14.93
2018-03-24T11:26:14.637Z,16.63
2018-03-24T11:28:42.601Z,15.50
2018-03-24T11:31:10.554Z,14.93
2018-03-24T11:33:38.458Z,14.17
2018-03-24T11:36:06.479Z,14.20
2018-03-24T11:38:34.461Z,15.37
2018-03-24T11:41:02.430Z,16.43
2018-03-24T11:43:30.359Z,18.03
2018-03-24T11:45:58.339Z,16.80
2018-03-24T11:48:26.256Z,15.07
2018-03-24T11:50:54.292Z,14.40
2018-03-24T11:53:28.001Z,14.80
2018-03-24T11:55:55.949Z,16.60
2018-03-24T11:58:23.877Z,18.07
2018-03-24T12:00:51.809Z,17.13
2018-03-24T12:03:19.757Z,18.50
2018-03-24T12:05:47.674Z,16.70
2018-03-24T12:08:15.651Z,16.10
2018-03-24T12:10:43.533Z,16.93
2018-03-24T12:13:13.146Z,16.17
2018-03-24T12:15:41.090Z,16.90
2018-03-24T12:18:09.051Z,14.60
2018-03-24T12:20:37.079Z,15.40
2018-03-24T12:23:05.006Z,15.70
2018-03-24T12:25:33.080Z,15.97
2018-03-24T12:28:00.952Z,16.37
2018-03-24T12:30:28.914Z,16.87
2018-03-24T12:32:56.872Z,17.10
2018-03-24T12:35:24.775Z,16.13
2018-03-24T12:37:52.706Z,17.70
2018-03-24T12:40:20.642Z,17.07
2018-03-24T12:42:48.669Z,18.00
2018-03-24T12:45:17.613Z,16.77
2018-03-24T12:47:45.566Z,16.87
2018-03-24T12:50:13.479Z,17.53
2018-03-24T12:52:43.247Z,17.03
2018-03-24T12:55:11.189Z,17.07
2018-03-24T12:57:39.124Z,16.90
2018-03-24T13:00:07.157Z,16.50
2018-03-24T13:02:35.063Z,16.60
2018-03-24T13:05:03.011Z,16.63
2018-03-24T13:07:31.075Z,15.60
2018-03-24T13:09:59.004Z,15.60
2018-03-24T13:12:26.917Z,16.90
2018-03-24T13:14:54.876Z,15.63
2018-03-24T13:17:22.770Z,14.93
2018-03-24T13:19:50.726Z,15.30
2018-03-24T13:22:18.645Z,16.00
2018-03-24T13:24:46.621Z,16.80
2018-03-24T13:27:14.544Z,17.50
2018-03-24T13:29:42.533Z,14.93
2018-03-24T13:32:10.470Z,17.30
2018-03-24T13:34:38.470Z,16.63
2018-03-24T13:37:06.413Z,15.73
2018-03-24T13:39:34.324Z,15.10
2018-03-24T13:42:02.283Z,15.70
2018-03-24T13:44:30.270Z,15.07
2018-03-24T13:46:58.220Z,16.47
2018-03-24T13:49:26.407Z,16.33
2018-03-24T13:51:54.363Z,14.70
2018-03-24T13:54:22.403Z,14.87
2018-03-24T13:56:50.376Z,15.47
2018-03-24T13:59:18.297Z,16.03
2018-03-24T14:01:46.233Z,14.70
2018-03-24T14:04:14.474Z,15.00
2018-03-24T14:06:42.425Z,15.97
2018-03-24T14:09:10.354Z,13.80
2018-03-24T14:11:38.794Z,14.83
2018-03-24T14:14:06.925Z,15.03
2018-03-24T14:16:34.849Z,13.60
2018-03-24T14:19:02.855Z,14.20
2018-03-24T14:21:30.828Z,15.20
2018-03-24T14:23:58.850Z,14.70
2018-03-24T14:26:26.786Z,13.93
2018-03-24T14:28:54.716Z,14.90
2018-03-24T14:31:22.669Z,14.00
2018-03-24T14:33:50.753Z,14.17
2018-03-24T14:36:18.661Z,13.47
2018-03-24T14:38:46.998Z,14.77
2018-03-24T14:41:15.406Z,14.50
2018-03-24T14:43:43.330Z,15.77
2018-03-24T14:46:11.415Z,15.03
2018-03-24T14:48:39.442Z,15.90
2018-03-24T14:51:07.404Z,15.20
2018-03-24T14:53:36.051Z,14.97
2018-03-24T14:56:03.984Z,14.27
2018-03-24T14:58:32.018Z,13.60
2018-03-24T15:00:59.949Z,14.00
2018-03-24T15:03:28.100Z,14.83
2018-03-24T15:05:56.035Z,14.13
2018-03-24T15:08:23.970Z,14.17
2018-03-24T15:10:51.910Z,16.67
2018-03-24T15:13:19.824Z,13.63
2018-03-24T15:15:47.756Z,15.70
2018-03-24T15:18:15.703Z,13.57
2018-03-24T15:20:43.638Z,15.37
2018-03-24T15:23:11.598Z,14.57
2018-03-24T15:25:39.597Z,14.90
2018-03-24T15:28:08.531Z,15.30
2018-03-24T15:30:48.273Z,14.63
2018-03-24T15:33:27.987Z,13.47
2018-03-24T15:36:07.664Z,15.10
2018-03-24T15:38:36.328Z,15.27
2018-03-24T15:41:04.261Z,15.67
2018-03-24T15:43:32.256Z,14.97
2018-03-24T15:46:01.676Z,14.10
2018-03-24T15:48:29.649Z,13.40
2018-03-24T15:50:57.789Z,14.80
2018-03-24T15:53:25.950Z,14.17
2018-03-24T15:55:54.742Z,14.30
2018-03-24T15:58:22.757Z,15.27
2018-03-24T16:00:50.704Z,14.30
2018-03-24T16:03:18.637Z,15.83
2018-03-24T16:05:46.609Z,15.83
2018-03-24T16:08:14.728Z,14.97
2018-03-24T16:10:43.773Z,15.37
2018-03-24T16:13:11.747Z,14.50
2018-03-24T16:15:39.704Z,15.20
2018-03-24T16:18:07.975Z,14.77
2018-03-24T16:20:35.904Z,15.73
2018-03-24T16:23:03.850Z,14.13
2018-03-24T16:25:31.898Z,17.07
2018-03-24T16:27:59.808Z,16.63
2018-03-24T16:30:27.770Z,15.70
2018-03-24T16:32:55.727Z,16.47
2018-03-24T16:35:23.985Z,14.50
2018-03-24T16:37:52.101Z,16.13
2018-03-24T16:40:20.122Z,16.57
2018-03-24T16:42:48.032Z,16.00
2018-03-24T16:45:15.943Z,16.40
2018-03-24T16:47:43.857Z,17.30
2018-03-24T16:50:11.816Z,16.83
2018-03-24T16:52:39.712Z,15.83
2018-03-24T16:55:07.657Z,18.77
2018-03-24T16:57:35.604Z,19.87
2018-03-24T17:00:03.580Z,19.20
2018-03-24T17:02:31.485Z,21.27
2018-03-24T17:04:59.411Z,30.67
2018-03-24T17:07:27.362Z,26.20
2018-03-24T17:09:55.255Z,24.00
2018-03-24T17:12:23.170Z,23.27
2018-03-24T17:14:51.121Z,32.00
2018-03-24T17:17:19.999Z,34.30
2018-03-24T17:19:48.057Z,31.00
2018-03-24T17:22:15.978Z,26.70
2018-03-24T17:24:43.908Z,26.13
2018-03-24T17:27:11.826Z,31.87
2018-03-24T17:29:39.762Z,34.10
2018-03-24T17:32:07.713Z,30.33
2018-03-24T17:34:35.655Z,27.67
2018-03-24T17:37:03.595Z,22.30
2018-03-24T17:39:31.682Z,21.03
2018-03-24T17:41:59.665Z,21.00
2018-03-24T17:44:27.668Z,19.10
2018-03-24T17:46:55.571Z,18.47
2018-03-24T17:49:23.566Z,19.70
2018-03-24T17:51:51.592Z,19.77
2018-03-24T17:54:19.537Z,19.43
2018-03-24T17:56:47.629Z,18.83
2018-03-24T17:59:15.553Z,20.03
2018-03-24T18:01:43.489Z,17.20
2018-03-24T18:04:11.493Z,19.53
2018-03-24T18:06:39.448Z,18.73
2018-03-24T18:09:07.412Z,19.17
2018-03-24T18:11:35.365Z,18.53
2018-03-24T18:14:03.314Z,18.30
2018-03-24T18:16:31.238Z,18.93
2018-03-24T18:18:59.255Z,17.73
2018-03-24T18:21:27.259Z,17.27
2018-03-24T18:23:55.240Z,16.50
2018-03-24T18:26:23.167Z,17.87
2018-03-24T18:28:51.113Z,20.53
2018-03-24T18:31:19.032Z,18.17
2018-03-24T18:33:46.969Z,20.90
2018-03-24T18:36:14.940Z,20.60
2018-03-24T18:38:42.886Z,20.63
2018-03-24T18:41:10.929Z,21.23
2018-03-24T18:43:38.951Z,18.83
2018-03-24T18:46:06.863Z,18.30
2018-03-24T18:48:34.798Z,16.97
2018-03-24T18:51:02.714Z,17.70
2018-03-24T18:53:30.726Z,18.77
2018-03-24T18:55:58.697Z,19.00
2018-03-24T18:58:26.617Z,17.90
2018-03-24T19:00:54.657Z,17.27
2018-03-24T19:03:22.577Z,17.80
2018-03-24T19:05:50.595Z,22.60
2018-03-24T19:08:18.577Z,25.07
2018-03-24T19:10:46.539Z,25.27
2018-03-24T19:13:14.530Z,26.03
2018-03-24T19:15:42.556Z,28.40
2018-03-24T19:18:10.502Z,29.00
2018-03-24T19:20:38.459Z,26.33
2018-03-24T19:23:06.400Z,19.43
2018-03-24T19:25:34.337Z,19.43
2018-03-24T19:28:02.286Z,18.50
2018-03-24T19:30:30.262Z,21.20
2018-03-24T19:32:58.208Z,21.23
2018-03-24T19:35:26.156Z,19.97
2018-03-24T19:37:54.122Z,19.30
2018-03-24T19:40:22.060Z,21.77
2018-03-24T19:42:50.017Z,20.87
2018-03-24T19:45:18.004Z,19.73
2018-03-24T19:47:45.961Z,21.07
2018-03-24T19:50:13.904Z,19.87
2018-03-24T19:52:41.908Z,20.00
2018-03-24T19:55:09.812Z,20.50
2018-03-24T19:57:38.068Z,22.60
2018-03-24T20:00:06.025Z,21.17
2018-03-24T20:02:33.955Z,22.97
2018-03-24T20:05:01.898Z,23.50
2018-03-24T20:07:29.798Z,21.67
2018-03-24T20:09:57.751Z,21.07
2018-03-24T20:12:25.696Z,21.07
2018-03-24T20:14:53.663Z,20.77
2018-03-24T20:17:21.600Z,22.43
2018-03-24T20:19:49.538Z,21.07
2018-03-24T20:22:17.538Z,23.33
2018-03-24T20:24:45.469Z,24.77
2018-03-24T20:27:13.462Z,24.50
2018-03-24T20:29:41.449Z,23.77
2018-03-24T20:32:09.357Z,24.40
2018-03-24T20:34:38.530Z,24.73
2018-03-24T20:37:06.480Z,26.70
2018-03-24T20:39:34.391Z,23.70
2018-03-24T20:42:02.362Z,23.07
2018-03-24T20:44:30.282Z,24.00
2018-03-24T20:46:58.219Z,23.50
2018-03-24T20:49:26.160Z,25.97
2018-03-24T20:51:54.164Z,22.90
2018-03-24T20:54:22.207Z,23.37
2018-03-24T20:56:50.202Z,23.97
2018-03-24T20:59:18.192Z,23.53
2018-03-24T21:01:46.303Z,23.90
2018-03-24T21:04:14.258Z,24.40
2018-03-24T21:06:42.229Z,24.60
2018-03-24T21:09:10.179Z,23.23
2018-03-24T21:11:38.226Z,23.03
2018-03-24T21:14:06.171Z,25.37
2018-03-24T21:16:34.159Z,24.43
2018-03-24T21:19:02.105Z,25.47
2018-03-24T21:21:30.060Z,25.43
2018-03-24T21:23:58.035Z,26.17
2018-03-24T21:26:26.005Z,27.00
2018-03-24T21:28:53.976Z,24.77
2018-03-24T21:31:21.911Z,26.03
2018-03-24T21:33:49.861Z,25.80
2018-03-24T21:36:17.812Z,28.83
2018-03-24T21:38:45.767Z,29.47
2018-03-24T21:41:13.799Z,27.80
2018-03-24T21:43:41.828Z,27.60
2018-03-24T21:46:09.841Z,28.83
2018-03-24T21:48:37.897Z,29.57
2018-03-24T21:51:06.017Z,27.73
2018-03-24T21:53:33.973Z,27.97
2018-03-24T21:56:02.481Z,27.00
2018-03-24T21:58:30.733Z,28.50
2018-03-24T22:01:01.910Z,28.00
2018-03-24T22:03:29.868Z,28.60
2018-03-24T22:05:57.789Z,25.93
2018-03-24T22:08:25.698Z,26.40
2018-03-24T22:10:54.212Z,26.87
2018-03-24T22:13:22.150Z,27.70
2018-03-24T22:15:50.099Z,26.87
2018-03-24T22:18:18.050Z,23.93
2018-03-24T22:20:46.025Z,26.80
2018-03-24T22:23:13.978Z,24.10
2018-03-24T22:25:42.016Z,23.80
2018-03-24T22:28:09.983Z,25.87
2018-03-24T22:30:37.970Z,25.63
2018-03-24T22:33:05.982Z,25.80
2018-03-24T22:35:33.947Z,24.43
2018-03-24T22:38:01.917Z,24.77
2018-03-24T22:40:29.848Z,23.97
2018-03-24T22:42:57.807Z,23.47
2018-03-24T22:45:25.775Z,23.37
2018-03-24T22:47:53.741Z,24.37
2018-03-24T22:50:21.730Z,25.07
2018-03-24T22:52:49.634Z,25.50
2018-03-24T22:55:17.581Z,23.97
2018-03-24T22:57:45.509Z,24.00
2018-03-24T23:00:13.567Z,24.90
2018-03-24T23:02:41.504Z,23.90
2018-03-24T23:05:09.536Z,25.07
2018-03-24T23:07:37.537Z,23.93
2018-03-24T23:10:05.658Z,25.70
2018-03-24T23:12:33.608Z,25.70
2018-03-24T23:15:01.561Z,31.53
2018-03-24T23:17:29.592Z,34.77
2018-03-24T23:19:57.561Z,56.90
2018-03-24T23:22:25.493Z,54.40
2018-03-24T23:24:53.452Z,26.40
2018-03-24T23:27:21.390Z,24.83
2018-03-24T23:29:49.361Z,25.00
2018-03-24T23:32:17.368Z,24.07
2018-03-24T23:34:45.389Z,25.07
2018-03-24T23:37:13.371Z,26.77
2018-03-24T23:39:41.647Z,24.73
2018-03-24T23:42:09.616Z,25.70
2018-03-24T23:44:37.521Z,27.70
2018-03-24T23:47:05.557Z,27.40
2018-03-24T23:49:33.456Z,27.80
2018-03-24T23:52:01.393Z,27.00
2018-03-24T23:54:29.373Z,27.27
2018-03-24T23:56:57.455Z,26.40
2018-03-24T23:59:25.387Z,28.97
